sensor_id;sensor_type;location;lat;lon;timestamp;P1;durP1;ratioP1;P2;durP2;ratioP2
27209;SDS011;14721;42.668;23.386;2024-03-23T00:52:56;7.60;;;3.97;;
27209;SDS011;14721;42.668;23.386;2024-03-23T00:55:21;9.37;;;4.37;;
27209;SDS011;14721;42.668;23.386;2024-03-23T00:57:47;10.77;;;4.20;;
27209;SDS011;14721;42.668;23.386;2024-03-23T01:00:12;9.10;;;3.93;;
27209;SDS011;14721;42.668;23.386;2024-03-23T01:02:39;9.63;;;4.20;;
27209;SDS011;14721;42.668;23.386;2024-03-23T01:05:06;10.40;;;4.37;;
27209;SDS011;14721;42.668;23.386;2024-03-23T01:07:32;8.83;;;4.00;;
27209;SDS011;14721;42.668;23.386;2024-03-23T01:09:58;8.70;;;4.27;;
27209;SDS011;14721;42.668;23.386;2024-03-23T01:12:24;9.40;;;3.87;;
27209;SDS011;14721;42.668;23.386;2024-03-23T01:14:49;9.47;;;4.00;;
27209;SDS011;14721;42.668;23.386;2024-03-23T01:17:15;8.87;;;3.83;;
27209;SDS011;14721;42.668;23.386;2024-03-23T01:19:43;8.47;;;3.73;;
27209;SDS011;14721;42.668;23.386;2024-03-23T01:22:09;10.07;;;4.67;;
27209;SDS011;14721;42.668;23.386;2024-03-23T01:24:37;6.47;;;3.33;;
27209;SDS011;14721;42.668;23.386;2024-03-23T01:27:04;7.43;;;3.90;;
27209;SDS011;14721;42.668;23.386;2024-03-23T01:29:30;8.07;;;3.63;;
27209;SDS011;14721;42.668;23.386;2024-03-23T01:31:55;8.10;;;4.03;;
27209;SDS011;14721;42.668;23.386;2024-03-23T01:34:23;8.87;;;4.50;;
27209;SDS011;14721;42.668;23.386;2024-03-23T01:36:50;10.40;;;4.50;;
27209;SDS011;14721;42.668;23.386;2024-03-23T01:39:15;9.70;;;4.87;;
27209;SDS011;14721;42.668;23.386;2024-03-23T01:41:43;11.33;;;5.00;;
27209;SDS011;14721;42.668;23.386;2024-03-23T01:44:10;9.77;;;4.30;;
27209;SDS011;14721;42.668;23.386;2024-03-23T01:46:39;8.47;;;3.80;;
27209;SDS011;14721;42.668;23.386;2024-03-23T01:49:06;8.23;;;4.60;;
27209;SDS011;14721;42.668;23.386;2024-03-23T01:51:32;9.43;;;3.83;;
27209;SDS011;14721;42.668;23.386;2024-03-23T01:54:02;8.90;;;3.93;;
27209;SDS011;14721;42.668;23.386;2024-03-23T01:56:32;9.30;;;4.10;;
27209;SDS011;14721;42.668;23.386;2024-03-23T01:59:01;7.80;;;3.70;;
27209;SDS011;14721;42.668;23.386;2024-03-23T02:01:32;12.03;;;4.60;;
27209;SDS011;14721;42.668;23.386;2024-03-23T02:04:03;6.57;;;4.10;;
27209;SDS011;14721;42.668;23.386;2024-03-23T02:06:32;10.80;;;3.83;;
27209;SDS011;14721;42.668;23.386;2024-03-23T02:08:58;7.90;;;4.27;;
27209;SDS011;14721;42.668;23.386;2024-03-23T02:11:25;8.40;;;3.97;;
27209;SDS011;14721;42.668;23.386;2024-03-23T02:17:23;9.13;;;4.50;;
27209;SDS011;14721;42.668;23.386;2024-03-23T02:19:48;12.80;;;4.70;;
27209;SDS011;14721;42.668;23.386;2024-03-23T02:22:14;13.20;;;4.97;;
27209;SDS011;14721;42.668;23.386;2024-03-23T02:24:41;10.87;;;4.47;;
27209;SDS011;14721;42.668;23.386;2024-03-23T02:27:06;8.43;;;3.73;;
27209;SDS011;14721;42.668;23.386;2024-03-23T02:29:32;11.93;;;4.50;;
27209;SDS011;14721;42.668;23.386;2024-03-23T02:31:57;11.37;;;4.43;;
27209;SDS011;14721;42.668;23.386;2024-03-23T02:34:24;9.70;;;4.53;;
27209;SDS011;14721;42.668;23.386;2024-03-23T02:36:56;8.77;;;4.37;;
27209;SDS011;14721;42.668;23.386;2024-03-23T02:39:22;9.27;;;4.43;;
27209;SDS011;14721;42.668;23.386;2024-03-23T02:41:52;9.37;;;4.10;;
27209;SDS011;14721;42.668;23.386;2024-03-23T02:44:18;9.30;;;4.73;;
27209;SDS011;14721;42.668;23.386;2024-03-23T02:46:43;8.70;;;4.30;;
27209;SDS011;14721;42.668;23.386;2024-03-23T02:49:11;8.10;;;4.03;;
27209;SDS011;14721;42.668;23.386;2024-03-23T02:51:36;8.57;;;4.57;;
27209;SDS011;14721;42.668;23.386;2024-03-23T02:54:02;9.60;;;4.40;;
27209;SDS011;14721;42.668;23.386;2024-03-23T02:56:27;11.13;;;4.63;;
27209;SDS011;14721;42.668;23.386;2024-03-23T02:58:53;7.80;;;3.83;;
27209;SDS011;14721;42.668;23.386;2024-03-23T03:01:21;8.57;;;4.67;;
27209;SDS011;14721;42.668;23.386;2024-03-23T03:03:49;8.07;;;4.13;;
27209;SDS011;14721;42.668;23.386;2024-03-23T03:06:22;10.03;;;4.40;;
27209;SDS011;14721;42.668;23.386;2024-03-23T03:08:48;10.93;;;4.77;;
27209;SDS011;14721;42.668;23.386;2024-03-23T03:11:16;9.00;;;4.20;;
27209;SDS011;14721;42.668;23.386;2024-03-23T03:13:42;12.83;;;4.40;;
27209;SDS011;14721;42.668;23.386;2024-03-23T03:16:10;10.03;;;3.47;;
27209;SDS011;14721;42.668;23.386;2024-03-23T03:18:42;7.37;;;4.13;;
27209;SDS011;14721;42.668;23.386;2024-03-23T03:21:11;7.50;;;3.73;;
27209;SDS011;14721;42.668;23.386;2024-03-23T03:23:38;9.23;;;4.20;;
27209;SDS011;14721;42.668;23.386;2024-03-23T03:26:04;10.47;;;4.10;;
27209;SDS011;14721;42.668;23.386;2024-03-23T03:28:31;9.57;;;4.40;;
27209;SDS011;14721;42.668;23.386;2024-03-23T03:30:58;11.37;;;4.87;;
27209;SDS011;14721;42.668;23.386;2024-03-23T03:33:27;16.83;;;7.60;;
27209;SDS011;14721;42.668;23.386;2024-03-23T03:35:53;17.87;;;7.77;;
27209;SDS011;14721;42.668;23.386;2024-03-23T03:38:19;15.83;;;7.37;;
27209;SDS011;14721;42.668;23.386;2024-03-23T03:40:45;23.70;;;9.77;;
27209;SDS011;14721;42.668;23.386;2024-03-23T03:43:10;27.87;;;10.57;;
27209;SDS011;14721;42.668;23.386;2024-03-23T03:45:36;27.60;;;10.00;;
27209;SDS011;14721;42.668;23.386;2024-03-23T03:48:02;18.33;;;8.97;;
27209;SDS011;14721;42.668;23.386;2024-03-23T03:50:27;21.20;;;10.37;;
27209;SDS011;14721;42.668;23.386;2024-03-23T03:52:53;23.30;;;9.37;;
27209;SDS011;14721;42.668;23.386;2024-03-23T03:55:19;22.53;;;9.80;;
27209;SDS011;14721;42.668;23.386;2024-03-23T03:57:44;26.83;;;11.50;;
27209;SDS011;14721;42.668;23.386;2024-03-23T04:00:10;20.13;;;9.37;;
27209;SDS011;14721;42.668;23.386;2024-03-23T04:02:38;24.60;;;10.80;;
27209;SDS011;14721;42.668;23.386;2024-03-23T04:05:04;21.93;;;9.70;;
27209;SDS011;14721;42.668;23.386;2024-03-23T04:07:30;27.80;;;11.23;;
27209;SDS011;14721;42.668;23.386;2024-03-23T04:09:56;25.30;;;11.70;;
27209;SDS011;14721;42.668;23.386;2024-03-23T04:12:21;21.50;;;10.93;;
27209;SDS011;14721;42.668;23.386;2024-03-23T04:14:48;20.93;;;9.90;;
27209;SDS011;14721;42.668;23.386;2024-03-23T04:17:14;24.43;;;9.37;;
27209;SDS011;14721;42.668;23.386;2024-03-23T04:19:39;15.00;;;7.17;;
27209;SDS011;14721;42.668;23.386;2024-03-23T04:22:06;13.73;;;6.63;;
27209;SDS011;14721;42.668;23.386;2024-03-23T04:24:31;14.87;;;6.30;;
27209;SDS011;14721;42.668;23.386;2024-03-23T04:27:00;11.00;;;4.73;;
27209;SDS011;14721;42.668;23.386;2024-03-23T04:29:25;9.97;;;4.77;;
27209;SDS011;14721;42.668;23.386;2024-03-23T04:31:52;13.03;;;4.47;;
27209;SDS011;14721;42.668;23.386;2024-03-23T04:34:17;10.27;;;4.40;;
27209;SDS011;14721;42.668;23.386;2024-03-23T04:36:43;11.07;;;4.13;;
27209;SDS011;14721;42.668;23.386;2024-03-23T04:39:09;8.47;;;4.13;;
27209;SDS011;14721;42.668;23.386;2024-03-23T04:41:35;8.63;;;4.07;;
27209;SDS011;14721;42.668;23.386;2024-03-23T04:44:00;12.20;;;4.43;;
27209;SDS011;14721;42.668;23.386;2024-03-23T04:46:26;7.90;;;4.27;;
27209;SDS011;14721;42.668;23.386;2024-03-23T04:48:52;11.97;;;4.17;;
27209;SDS011;14721;42.668;23.386;2024-03-23T04:51:21;10.67;;;4.43;;
27209;SDS011;14721;42.668;23.386;2024-03-23T04:53:48;8.53;;;4.40;;
27209;SDS011;14721;42.668;23.386;2024-03-23T04:56:16;12.53;;;4.20;;
27209;SDS011;14721;42.668;23.386;2024-03-23T04:58:42;9.17;;;4.80;;
27209;SDS011;14721;42.668;23.386;2024-03-23T05:01:09;14.43;;;6.20;;
27209;SDS011;14721;42.668;23.386;2024-03-23T05:03:34;14.43;;;6.13;;
27209;SDS011;14721;42.668;23.386;2024-03-23T05:06:01;14.57;;;6.47;;
27209;SDS011;14721;42.668;23.386;2024-03-23T05:08:27;20.03;;;6.70;;
27209;SDS011;14721;42.668;23.386;2024-03-23T05:10:53;18.70;;;7.33;;
27209;SDS011;14721;42.668;23.386;2024-03-23T05:13:30;24.87;;;8.00;;
27209;SDS011;14721;42.668;23.386;2024-03-23T05:15:56;20.67;;;8.37;;
27209;SDS011;14721;42.668;23.386;2024-03-23T05:18:21;17.47;;;7.97;;
27209;SDS011;14721;42.668;23.386;2024-03-23T05:20:47;20.23;;;8.60;;
27209;SDS011;14721;42.668;23.386;2024-03-23T05:23:20;18.93;;;9.97;;
27209;SDS011;14721;42.668;23.386;2024-03-23T05:25:45;19.33;;;8.77;;
27209;SDS011;14721;42.668;23.386;2024-03-23T05:28:11;22.87;;;10.17;;
27209;SDS011;14721;42.668;23.386;2024-03-23T05:30:37;25.60;;;10.57;;
27209;SDS011;14721;42.668;23.386;2024-03-23T05:33:02;25.63;;;11.27;;
27209;SDS011;14721;42.668;23.386;2024-03-23T05:35:28;29.13;;;11.70;;
27209;SDS011;14721;42.668;23.386;2024-03-23T05:37:53;24.03;;;10.00;;
27209;SDS011;14721;42.668;23.386;2024-03-23T05:40:19;22.40;;;9.50;;
27209;SDS011;14721;42.668;23.386;2024-03-23T05:42:44;14.13;;;6.80;;
27209;SDS011;14721;42.668;23.386;2024-03-23T05:45:10;14.23;;;7.23;;
27209;SDS011;14721;42.668;23.386;2024-03-23T05:47:36;16.83;;;7.23;;
27209;SDS011;14721;42.668;23.386;2024-03-23T05:50:02;22.93;;;8.50;;
27209;SDS011;14721;42.668;23.386;2024-03-23T05:52:27;17.43;;;8.03;;
27209;SDS011;14721;42.668;23.386;2024-03-23T05:54:53;16.87;;;8.37;;
27209;SDS011;14721;42.668;23.386;2024-03-23T05:57:21;18.40;;;8.20;;
27209;SDS011;14721;42.668;23.386;2024-03-23T05:59:49;16.70;;;8.40;;
27209;SDS011;14721;42.668;23.386;2024-03-23T06:02:16;14.03;;;8.40;;
27209;SDS011;14721;42.668;23.386;2024-03-23T06:04:43;17.47;;;8.30;;
27209;SDS011;14721;42.668;23.386;2024-03-23T06:07:11;21.20;;;8.23;;
27209;SDS011;14721;42.668;23.386;2024-03-23T06:09:39;17.87;;;7.80;;
27209;SDS011;14721;42.668;23.386;2024-03-23T06:12:05;16.53;;;7.97;;
27209;SDS011;14721;42.668;23.386;2024-03-23T06:14:31;14.30;;;7.87;;
27209;SDS011;14721;42.668;23.386;2024-03-23T06:17:01;15.87;;;7.93;;
27209;SDS011;14721;42.668;23.386;2024-03-23T06:19:29;16.67;;;7.77;;
27209;SDS011;14721;42.668;23.386;2024-03-23T06:21:54;16.67;;;8.20;;
27209;SDS011;14721;42.668;23.386;2024-03-23T06:24:21;19.50;;;9.20;;
27209;SDS011;14721;42.668;23.386;2024-03-23T06:26:48;17.90;;;8.47;;
27209;SDS011;14721;42.668;23.386;2024-03-23T06:29:15;20.53;;;7.80;;
27209;SDS011;14721;42.668;23.386;2024-03-23T06:31:41;19.27;;;8.90;;
27209;SDS011;14721;42.668;23.386;2024-03-23T06:34:09;18.93;;;9.27;;
27209;SDS011;14721;42.668;23.386;2024-03-23T06:36:35;15.10;;;8.63;;
27209;SDS011;14721;42.668;23.386;2024-03-23T06:39:03;20.17;;;8.93;;
27209;SDS011;14721;42.668;23.386;2024-03-23T06:41:30;16.07;;;8.07;;
27209;SDS011;14721;42.668;23.386;2024-03-23T06:43:56;22.37;;;9.03;;
27209;SDS011;14721;42.668;23.386;2024-03-23T06:46:23;15.07;;;8.50;;
27209;SDS011;14721;42.668;23.386;2024-03-23T06:48:48;21.23;;;8.95;;
27209;SDS011;14721;42.668;23.386;2024-03-23T06:51:16;15.32;;;8.30;;
27209;SDS011;14721;42.668;23.386;2024-03-23T06:53:49;16.90;;;7.88;;
27209;SDS011;14721;42.668;23.386;2024-03-23T06:56:15;19.75;;;8.13;;
27209;SDS011;14721;42.668;23.386;2024-03-23T06:58:41;18.52;;;8.70;;
27209;SDS011;14721;42.668;23.386;2024-03-23T07:01:08;19.42;;;8.63;;
27209;SDS011;14721;42.668;23.386;2024-03-23T07:03:36;19.10;;;8.63;;
27209;SDS011;14721;42.668;23.386;2024-03-23T07:06:02;16.55;;;7.82;;
27209;SDS011;14721;42.668;23.386;2024-03-23T07:08:27;16.60;;;8.32;;
27209;SDS011;14721;42.668;23.386;2024-03-23T07:10:54;18.10;;;8.88;;
27209;SDS011;14721;42.668;23.386;2024-03-23T07:13:20;13.18;;;7.88;;
27209;SDS011;14721;42.668;23.386;2024-03-23T07:15:50;16.42;;;7.68;;
27209;SDS011;14721;42.668;23.386;2024-03-23T07:18:22;14.25;;;8.15;;
27209;SDS011;14721;42.668;23.386;2024-03-23T07:20:53;14.98;;;8.50;;
27209;SDS011;14721;42.668;23.386;2024-03-23T07:23:19;16.05;;;8.75;;
27209;SDS011;14721;42.668;23.386;2024-03-23T07:25:45;15.15;;;8.60;;
27209;SDS011;14721;42.668;23.386;2024-03-23T07:28:20;16.45;;;8.73;;
27209;SDS011;14721;42.668;23.386;2024-03-23T07:30:49;13.88;;;8.23;;
27209;SDS011;14721;42.668;23.386;2024-03-23T07:33:27;13.68;;;7.63;;
27209;SDS011;14721;42.668;23.386;2024-03-23T07:35:53;17.27;;;7.75;;
27209;SDS011;14721;42.668;23.386;2024-03-23T07:38:18;13.60;;;7.63;;
27209;SDS011;14721;42.668;23.386;2024-03-23T07:40:44;14.70;;;7.28;;
27209;SDS011;14721;42.668;23.386;2024-03-23T07:43:11;14.77;;;7.30;;
27209;SDS011;14721;42.668;23.386;2024-03-23T07:45:40;18.77;;;8.00;;
27209;SDS011;14721;42.668;23.386;2024-03-23T07:48:05;12.48;;;7.40;;
27209;SDS011;14721;42.668;23.386;2024-03-23T07:50:34;14.63;;;6.13;;
27209;SDS011;14721;42.668;23.386;2024-03-23T07:53:06;16.15;;;6.35;;
27209;SDS011;14721;42.668;23.386;2024-03-23T07:55:31;12.05;;;6.53;;
27209;SDS011;14721;42.668;23.386;2024-03-23T07:57:57;14.30;;;6.35;;
27209;SDS011;14721;42.668;23.386;2024-03-23T08:00:22;14.57;;;7.25;;
27209;SDS011;14721;42.668;23.386;2024-03-23T08:02:50;15.68;;;7.57;;
27209;SDS011;14721;42.668;23.386;2024-03-23T08:05:16;18.95;;;7.22;;
27209;SDS011;14721;42.668;23.386;2024-03-23T08:07:42;13.75;;;6.65;;
27209;SDS011;14721;42.668;23.386;2024-03-23T08:10:08;17.02;;;7.57;;
27209;SDS011;14721;42.668;23.386;2024-03-23T08:12:34;14.05;;;7.18;;
27209;SDS011;14721;42.668;23.386;2024-03-23T08:15:01;15.32;;;7.05;;
27209;SDS011;14721;42.668;23.386;2024-03-23T08:17:26;17.48;;;6.05;;
27209;SDS011;14721;42.668;23.386;2024-03-23T08:19:52;14.02;;;7.00;;
27209;SDS011;14721;42.668;23.386;2024-03-23T08:22:20;14.57;;;6.85;;
27209;SDS011;14721;42.668;23.386;2024-03-23T08:24:47;17.90;;;7.32;;
27209;SDS011;14721;42.668;23.386;2024-03-23T08:27:13;14.00;;;7.53;;
27209;SDS011;14721;42.668;23.386;2024-03-23T08:29:38;13.90;;;6.53;;
27209;SDS011;14721;42.668;23.386;2024-03-23T08:32:04;12.32;;;6.32;;
27209;SDS011;14721;42.668;23.386;2024-03-23T08:34:30;15.60;;;7.30;;
27209;SDS011;14721;42.668;23.386;2024-03-23T08:36:56;12.80;;;7.30;;
27209;SDS011;14721;42.668;23.386;2024-03-23T08:39:23;10.73;;;6.72;;
27209;SDS011;14721;42.668;23.386;2024-03-23T08:41:50;16.25;;;7.85;;
27209;SDS011;14721;42.668;23.386;2024-03-23T08:44:16;12.63;;;7.18;;
27209;SDS011;14721;42.668;23.386;2024-03-23T08:46:41;9.18;;;5.88;;
27209;SDS011;14721;42.668;23.386;2024-03-23T08:49:07;17.80;;;6.93;;
27209;SDS011;14721;42.668;23.386;2024-03-23T08:51:32;12.07;;;7.25;;
27209;SDS011;14721;42.668;23.386;2024-03-23T08:53:58;12.38;;;7.22;;
27209;SDS011;14721;42.668;23.386;2024-03-23T08:56:25;16.05;;;7.53;;
27209;SDS011;14721;42.668;23.386;2024-03-23T08:58:50;10.80;;;7.05;;
27209;SDS011;14721;42.668;23.386;2024-03-23T09:01:17;16.27;;;7.55;;
27209;SDS011;14721;42.668;23.386;2024-03-23T09:03:42;12.88;;;6.82;;
27209;SDS011;14721;42.668;23.386;2024-03-23T09:06:09;16.23;;;7.28;;
27209;SDS011;14721;42.668;23.386;2024-03-23T09:08:37;15.77;;;6.60;;
27209;SDS011;14721;42.668;23.386;2024-03-23T09:11:07;14.93;;;7.37;;
27209;SDS011;14721;42.668;23.386;2024-03-23T09:13:34;11.30;;;6.03;;
27209;SDS011;14721;42.668;23.386;2024-03-23T09:16:00;14.80;;;6.37;;
27209;SDS011;14721;42.668;23.386;2024-03-23T09:18:26;12.38;;;5.95;;
27209;SDS011;14721;42.668;23.386;2024-03-23T09:20:52;12.93;;;5.97;;
27209;SDS011;14721;42.668;23.386;2024-03-23T09:23:20;10.77;;;6.18;;
27209;SDS011;14721;42.668;23.386;2024-03-23T09:25:46;12.52;;;6.90;;
27209;SDS011;14721;42.668;23.386;2024-03-23T09:28:11;13.13;;;6.60;;
27209;SDS011;14721;42.668;23.386;2024-03-23T09:30:37;14.00;;;5.70;;
27209;SDS011;14721;42.668;23.386;2024-03-23T09:33:09;13.73;;;6.33;;
27209;SDS011;14721;42.668;23.386;2024-03-23T09:35:38;19.42;;;5.93;;
27209;SDS011;14721;42.668;23.386;2024-03-23T09:38:04;11.10;;;5.57;;
27209;SDS011;14721;42.668;23.386;2024-03-23T09:40:30;12.17;;;6.60;;
27209;SDS011;14721;42.668;23.386;2024-03-23T09:42:56;11.13;;;5.53;;
27209;SDS011;14721;42.668;23.386;2024-03-23T09:45:23;12.67;;;5.73;;
27209;SDS011;14721;42.668;23.386;2024-03-23T09:47:52;11.88;;;4.95;;
27209;SDS011;14721;42.668;23.386;2024-03-23T09:50:18;8.43;;;5.17;;
27209;SDS011;14721;42.668;23.386;2024-03-23T09:52:46;10.47;;;5.40;;
27209;SDS011;14721;42.668;23.386;2024-03-23T09:55:12;13.57;;;5.53;;
27209;SDS011;14721;42.668;23.386;2024-03-23T09:57:39;10.27;;;5.63;;
27209;SDS011;14721;42.668;23.386;2024-03-23T10:00:05;9.15;;;4.57;;
27209;SDS011;14721;42.668;23.386;2024-03-23T10:02:32;10.02;;;4.65;;
27209;SDS011;14721;42.668;23.386;2024-03-23T10:05:02;10.90;;;5.07;;
27209;SDS011;14721;42.668;23.386;2024-03-23T10:07:27;10.63;;;5.03;;
27209;SDS011;14721;42.668;23.386;2024-03-23T10:09:53;8.07;;;4.65;;
27209;SDS011;14721;42.668;23.386;2024-03-23T10:12:20;10.80;;;5.13;;
27209;SDS011;14721;42.668;23.386;2024-03-23T10:14:45;10.68;;;4.80;;
27209;SDS011;14721;42.668;23.386;2024-03-23T10:19:50;14.77;;;5.80;;
27209;SDS011;14721;42.668;23.386;2024-03-23T10:22:23;10.60;;;5.85;;
27209;SDS011;14721;42.668;23.386;2024-03-23T10:24:51;9.93;;;5.70;;
27209;SDS011;14721;42.668;23.386;2024-03-23T10:27:21;11.45;;;5.93;;
27209;SDS011;14721;42.668;23.386;2024-03-23T10:29:47;9.35;;;5.32;;
27209;SDS011;14721;42.668;23.386;2024-03-23T10:32:14;11.82;;;5.78;;
27209;SDS011;14721;42.668;23.386;2024-03-23T10:34:42;11.02;;;6.00;;
27209;SDS011;14721;42.668;23.386;2024-03-23T10:37:07;13.27;;;5.63;;
27209;SDS011;14721;42.668;23.386;2024-03-23T10:39:34;12.05;;;6.00;;
27209;SDS011;14721;42.668;23.386;2024-03-23T10:42:03;9.75;;;5.88;;
27209;SDS011;14721;42.668;23.386;2024-03-23T10:44:33;10.02;;;5.90;;
27209;SDS011;14721;42.668;23.386;2024-03-23T10:46:59;14.52;;;6.50;;
27209;SDS011;14721;42.668;23.386;2024-03-23T10:49:26;14.55;;;7.03;;
27209;SDS011;14721;42.668;23.386;2024-03-23T10:51:54;12.25;;;6.75;;
27209;SDS011;14721;42.668;23.386;2024-03-23T10:54:22;14.80;;;8.05;;
27209;SDS011;14721;42.668;23.386;2024-03-23T10:56:50;16.83;;;7.30;;
27209;SDS011;14721;42.668;23.386;2024-03-23T10:59:22;13.40;;;6.15;;
27209;SDS011;14721;42.668;23.386;2024-03-23T11:02:01;16.60;;;8.30;;
27209;SDS011;14721;42.668;23.386;2024-03-23T11:04:35;12.77;;;6.57;;
27209;SDS011;14721;42.668;23.386;2024-03-23T11:09:49;17.35;;;7.40;;
27209;SDS011;14721;42.668;23.386;2024-03-23T11:14:46;15.13;;;6.07;;
27209;SDS011;14721;42.668;23.386;2024-03-23T11:17:24;10.65;;;5.20;;
27209;SDS011;14721;42.668;23.386;2024-03-23T11:19:54;10.23;;;5.85;;
27209;SDS011;14721;42.668;23.386;2024-03-23T11:22:54;12.13;;;6.25;;
27209;SDS011;14721;42.668;23.386;2024-03-23T11:25:21;9.60;;;5.07;;
27209;SDS011;14721;42.668;23.386;2024-03-23T11:27:49;14.15;;;5.30;;
27209;SDS011;14721;42.668;23.386;2024-03-23T11:30:23;11.40;;;4.95;;
27209;SDS011;14721;42.668;23.386;2024-03-23T11:32:54;9.98;;;5.10;;
27209;SDS011;14721;42.668;23.386;2024-03-23T11:38:12;11.98;;;4.90;;
27209;SDS011;14721;42.668;23.386;2024-03-23T11:40:39;9.05;;;5.65;;
27209;SDS011;14721;42.668;23.386;2024-03-23T11:43:07;10.80;;;4.85;;
27209;SDS011;14721;42.668;23.386;2024-03-23T11:45:36;10.40;;;5.22;;
27209;SDS011;14721;42.668;23.386;2024-03-23T11:48:10;8.93;;;5.22;;
27209;SDS011;14721;42.668;23.386;2024-03-23T11:50:39;11.10;;;5.15;;
27209;SDS011;14721;42.668;23.386;2024-03-23T11:55:41;8.25;;;4.18;;
27209;SDS011;14721;42.668;23.386;2024-03-23T11:58:22;13.35;;;5.47;;
27209;SDS011;14721;42.668;23.386;2024-03-23T12:01:03;11.50;;;5.25;;
27209;SDS011;14721;42.668;23.386;2024-03-23T12:10:05;10.25;;;5.28;;
27209;SDS011;14721;42.668;23.386;2024-03-23T12:12:35;10.73;;;5.30;;
27209;SDS011;14721;42.668;23.386;2024-03-23T12:15:22;13.57;;;6.20;;
27209;SDS011;14721;42.668;23.386;2024-03-23T12:18:05;11.48;;;5.28;;
27209;SDS011;14721;42.668;23.386;2024-03-23T12:20:37;8.73;;;4.60;;
27209;SDS011;14721;42.668;23.386;2024-03-23T12:23:12;8.90;;;5.53;;
27209;SDS011;14721;42.668;23.386;2024-03-23T12:25:38;10.48;;;5.43;;
27209;SDS011;14721;42.668;23.386;2024-03-23T12:28:27;10.35;;;5.57;;
27209;SDS011;14721;42.668;23.386;2024-03-23T12:30:53;13.95;;;5.55;;
27209;SDS011;14721;42.668;23.386;2024-03-23T12:33:21;9.88;;;5.18;;
27209;SDS011;14721;42.668;23.386;2024-03-23T12:35:57;11.23;;;5.32;;
27209;SDS011;14721;42.668;23.386;2024-03-23T12:38:23;13.52;;;5.00;;
27209;SDS011;14721;42.668;23.386;2024-03-23T12:40:49;9.88;;;5.13;;
27209;SDS011;14721;42.668;23.386;2024-03-23T12:43:15;12.07;;;5.13;;
27209;SDS011;14721;42.668;23.386;2024-03-23T12:45:49;11.77;;;5.25;;
27209;SDS011;14721;42.668;23.386;2024-03-23T12:48:16;9.50;;;5.53;;
27209;SDS011;14721;42.668;23.386;2024-03-23T12:50:43;12.27;;;5.47;;
27209;SDS011;14721;42.668;23.386;2024-03-23T12:53:08;10.85;;;5.28;;
27209;SDS011;14721;42.668;23.386;2024-03-23T12:55:34;16.15;;;6.97;;
27209;SDS011;14721;42.668;23.386;2024-03-23T12:58:02;10.15;;;4.50;;
27209;SDS011;14721;42.668;23.386;2024-03-23T13:00:32;13.23;;;5.13;;
27209;SDS011;14721;42.668;23.386;2024-03-23T13:03:01;7.88;;;3.80;;
27209;SDS011;14721;42.668;23.386;2024-03-23T13:05:26;10.90;;;4.80;;
27209;SDS011;14721;42.668;23.386;2024-03-23T13:07:52;8.18;;;4.10;;
27209;SDS011;14721;42.668;23.386;2024-03-23T13:10:17;7.03;;;3.72;;
27209;SDS011;14721;42.668;23.386;2024-03-23T13:13:03;5.38;;;3.17;;
27209;SDS011;14721;42.668;23.386;2024-03-23T13:15:39;7.05;;;3.67;;
27209;SDS011;14721;42.668;23.386;2024-03-23T13:18:04;9.88;;;3.28;;
27209;SDS011;14721;42.668;23.386;2024-03-23T13:20:30;9.32;;;2.38;;
27209;SDS011;14721;42.668;23.386;2024-03-23T13:23:00;4.53;;;2.60;;
27209;SDS011;14721;42.668;23.386;2024-03-23T13:25:26;9.82;;;2.80;;
27209;SDS011;14721;42.668;23.386;2024-03-23T13:27:51;6.07;;;2.88;;
27209;SDS011;14721;42.668;23.386;2024-03-23T13:30:17;7.50;;;2.70;;
27209;SDS011;14721;42.668;23.386;2024-03-23T13:32:43;7.50;;;2.80;;
27209;SDS011;14721;42.668;23.386;2024-03-23T13:38:10;7.60;;;4.25;;
27209;SDS011;14721;42.668;23.386;2024-03-23T13:40:38;6.40;;;3.80;;
27209;SDS011;14721;42.668;23.386;2024-03-23T13:43:07;7.30;;;3.92;;
27209;SDS011;14721;42.668;23.386;2024-03-23T13:45:36;8.13;;;3.28;;
27209;SDS011;14721;42.668;23.386;2024-03-23T13:48:04;5.07;;;2.90;;
27209;SDS011;14721;42.668;23.386;2024-03-23T13:50:30;10.30;;;3.80;;
27209;SDS011;14721;42.668;23.386;2024-03-23T13:52:55;8.50;;;3.15;;
27209;SDS011;14721;42.668;23.386;2024-03-23T13:55:21;7.95;;;3.35;;
27209;SDS011;14721;42.668;23.386;2024-03-23T13:57:46;7.70;;;3.20;;
27209;SDS011;14721;42.668;23.386;2024-03-23T14:00:13;9.43;;;2.63;;
27209;SDS011;14721;42.668;23.386;2024-03-23T14:02:38;6.63;;;2.92;;
27209;SDS011;14721;42.668;23.386;2024-03-23T14:05:04;4.88;;;2.97;;
27209;SDS011;14721;42.668;23.386;2024-03-23T14:07:30;5.07;;;2.55;;
27209;SDS011;14721;42.668;23.386;2024-03-23T14:09:55;6.72;;;2.60;;
27209;SDS011;14721;42.668;23.386;2024-03-23T14:12:21;4.97;;;2.42;;
27209;SDS011;14721;42.668;23.386;2024-03-23T14:14:46;2.97;;;1.50;;
27209;SDS011;14721;42.668;23.386;2024-03-23T14:17:12;4.03;;;2.00;;
27209;SDS011;14721;42.668;23.386;2024-03-23T14:19:39;3.40;;;1.67;;
27209;SDS011;14721;42.668;23.386;2024-03-23T14:22:04;2.15;;;1.20;;
27209;SDS011;14721;42.668;23.386;2024-03-23T14:24:32;3.05;;;1.83;;
27209;SDS011;14721;42.668;23.386;2024-03-23T14:26:58;6.40;;;2.05;;
27209;SDS011;14721;42.668;23.386;2024-03-23T14:29:28;4.50;;;2.17;;
27209;SDS011;14721;42.668;23.386;2024-03-23T14:31:53;7.40;;;2.28;;
27209;SDS011;14721;42.668;23.386;2024-03-23T14:34:19;4.40;;;1.90;;
27209;SDS011;14721;42.668;23.386;2024-03-23T14:36:44;7.68;;;1.90;;
27209;SDS011;14721;42.668;23.386;2024-03-23T14:39:10;6.30;;;1.92;;
27209;SDS011;14721;42.668;23.386;2024-03-23T14:41:37;6.03;;;1.90;;
27209;SDS011;14721;42.668;23.386;2024-03-23T14:44:03;4.75;;;2.08;;
27209;SDS011;14721;42.668;23.386;2024-03-23T14:46:29;5.15;;;2.22;;
27209;SDS011;14721;42.668;23.386;2024-03-23T14:48:55;4.43;;;2.20;;
27209;SDS011;14721;42.668;23.386;2024-03-23T14:51:23;7.18;;;2.03;;
27209;SDS011;14721;42.668;23.386;2024-03-23T14:53:48;3.25;;;2.08;;
27209;SDS011;14721;42.668;23.386;2024-03-23T14:56:14;3.40;;;2.00;;
27209;SDS011;14721;42.668;23.386;2024-03-23T14:58:40;4.20;;;2.40;;
27209;SDS011;14721;42.668;23.386;2024-03-23T15:01:07;4.38;;;2.30;;
27209;SDS011;14721;42.668;23.386;2024-03-23T15:03:39;4.35;;;1.80;;
27209;SDS011;14721;42.668;23.386;2024-03-23T15:06:05;10.70;;;2.67;;
27209;SDS011;14721;42.668;23.386;2024-03-23T15:08:31;2.45;;;1.48;;
27209;SDS011;14721;42.668;23.386;2024-03-23T15:11:00;3.50;;;1.20;;
27209;SDS011;14721;42.668;23.386;2024-03-23T15:13:31;4.53;;;1.27;;
27209;SDS011;14721;42.668;23.386;2024-03-23T15:15:59;2.88;;;1.10;;
27209;SDS011;14721;42.668;23.386;2024-03-23T15:18:25;5.47;;;2.40;;
27209;SDS011;14721;42.668;23.386;2024-03-23T15:20:54;3.55;;;1.33;;
27209;SDS011;14721;42.668;23.386;2024-03-23T15:23:27;1.92;;;1.00;;
27209;SDS011;14721;42.668;23.386;2024-03-23T15:25:59;2.10;;;1.10;;
27209;SDS011;14721;42.668;23.386;2024-03-23T15:28:26;4.30;;;1.63;;
27209;SDS011;14721;42.668;23.386;2024-03-23T15:31:05;5.32;;;1.73;;
27209;SDS011;14721;42.668;23.386;2024-03-23T15:33:32;4.75;;;1.40;;
27209;SDS011;14721;42.668;23.386;2024-03-23T15:36:01;6.18;;;1.40;;
27209;SDS011;14721;42.668;23.386;2024-03-23T15:38:27;4.25;;;2.20;;
27209;SDS011;14721;42.668;23.386;2024-03-23T15:40:56;2.53;;;1.60;;
27209;SDS011;14721;42.668;23.386;2024-03-23T15:43:21;2.88;;;1.30;;
27209;SDS011;14721;42.668;23.386;2024-03-23T15:45:53;6.57;;;3.47;;